sensor_id;sensor_type;location;lat;lon;timestamp;pressure;altitude;pressure_sealevel;temperature
62930;BMP280;49036;42.782;23.108;2023-11-21T00:01:52;90149.28;;;1.19
62930;BMP280;49036;42.782;23.108;2023-11-21T00:04:18;90164.84;;;1.16
62930;BMP280;49036;42.782;23.108;2023-11-21T00:06:43;90188.50;;;1.12
62930;BMP280;49036;42.782;23.108;2023-11-21T00:09:12;90206.31;;;1.13
62930;BMP280;49036;42.782;23.108;2023-11-21T00:11:38;90217.84;;;1.11
62930;BMP280;49036;42.782;23.108;2023-11-21T00:14:04;90237.63;;;1.12
62930;BMP280;49036;42.782;23.108;2023-11-21T00:16:29;90272.13;;;1.05
62930;BMP280;49036;42.782;23.108;2023-11-21T00:18:55;90289.94;;;1.06
62930;BMP280;49036;42.782;23.108;2023-11-21T00:21:20;90290.03;;;1.08
62930;BMP280;49036;42.782;23.108;2023-11-21T00:23:46;90262.81;;;1.10
62930;BMP280;49036;42.782;23.108;2023-11-21T00:26:11;90250.59;;;1.11
62930;BMP280;49036;42.782;23.108;2023-11-21T00:28:37;90247.84;;;1.11
62930;BMP280;49036;42.782;23.108;2023-11-21T00:31:03;90237.63;;;1.12
62930;BMP280;49036;42.782;23.108;2023-11-21T00:33:29;90235.94;;;1.05
62930;BMP280;49036;42.782;23.108;2023-11-21T00:35:55;90233.56;;;0.97
62930;BMP280;49036;42.782;23.108;2023-11-21T00:38:20;90233.19;;;0.89
62930;BMP280;49036;42.782;23.108;2023-11-21T00:40:46;90226.69;;;0.80
62930;BMP280;49036;42.782;23.108;2023-11-21T00:43:11;90219.44;;;0.71
62930;BMP280;49036;42.782;23.108;2023-11-21T00:45:37;90202.09;;;0.64
62930;BMP280;49036;42.782;23.108;2023-11-21T00:48:03;90204.53;;;0.58
62930;BMP280;49036;42.782;23.108;2023-11-21T00:50:30;90201.94;;;0.47
62930;BMP280;49036;42.782;23.108;2023-11-21T00:52:56;90188.81;;;0.43
62930;BMP280;49036;42.782;23.108;2023-11-21T00:55:21;90166.13;;;0.38
62930;BMP280;49036;42.782;23.108;2023-11-21T00:57:47;90148.97;;;0.36
62930;BMP280;49036;42.782;23.108;2023-11-21T01:00:13;90134.47;;;0.31
62930;BMP280;49036;42.782;23.108;2023-11-21T01:02:43;90122.03;;;0.28
62930;BMP280;49036;42.782;23.108;2023-11-21T01:05:09;90109.84;;;0.29
62930;BMP280;49036;42.782;23.108;2023-11-21T01:07:36;90089.34;;;0.28
62930;BMP280;49036;42.782;23.108;2023-11-21T01:10:03;90093.63;;;0.18
62930;BMP280;49036;42.782;23.108;2023-11-21T01:12:31;90085.25;;;0.14
62930;BMP280;49036;42.782;23.108;2023-11-21T01:14:56;90082.38;;;0.09
62930;BMP280;49036;42.782;23.108;2023-11-21T01:17:25;90074.19;;;0.09
62930;BMP280;49036;42.782;23.108;2023-11-21T01:19:50;90058.28;;;0.04
62930;BMP280;49036;42.782;23.108;2023-11-21T01:22:16;90051.91;;;-0.01
62930;BMP280;49036;42.782;23.108;2023-11-21T01:24:41;90026.09;;;0.00
62930;BMP280;49036;42.782;23.108;2023-11-21T01:27:07;90023.69;;;-0.07
62930;BMP280;49036;42.782;23.108;2023-11-21T01:29:34;90014.22;;;-0.06
62930;BMP280;49036;42.782;23.108;2023-11-21T01:32:02;89987.88;;;-0.02
62930;BMP280;49036;42.782;23.108;2023-11-21T01:34:28;89973.88;;;-0.10
62930;BMP280;49036;42.782;23.108;2023-11-21T01:36:54;89936.88;;;-0.15
62930;BMP280;49036;42.782;23.108;2023-11-21T01:39:19;89893.75;;;-0.21
62930;BMP280;49036;42.782;23.108;2023-11-21T01:41:49;89881.25;;;-0.26
62930;BMP280;49036;42.782;23.108;2023-11-21T01:44:15;89896.16;;;-0.42
62930;BMP280;49036;42.782;23.108;2023-11-21T01:46:42;89911.97;;;-0.55
62930;BMP280;49036;42.782;23.108;2023-11-21T01:49:08;89912.38;;;-0.60
62930;BMP280;49036;42.782;23.108;2023-11-21T01:51:35;89896.56;;;-0.64
62930;BMP280;49036;42.782;23.108;2023-11-21T01:54:02;89900.59;;;-0.65
62930;BMP280;49036;42.782;23.108;2023-11-21T01:56:30;89857.53;;;-0.55
62930;BMP280;49036;42.782;23.108;2023-11-21T01:58:57;89835.22;;;-0.51
62930;BMP280;49036;42.782;23.108;2023-11-21T02:01:22;89790.53;;;-0.46
62930;BMP280;49036;42.782;23.108;2023-11-21T02:03:48;89754.88;;;-0.36
62930;BMP280;49036;42.782;23.108;2023-11-21T02:06:13;89695.94;;;-0.14
62930;BMP280;49036;42.782;23.108;2023-11-21T02:08:39;89647.50;;;0.00
62930;BMP280;49036;42.782;23.108;2023-11-21T02:11:05;89602.75;;;0.05
62930;BMP280;49036;42.782;23.108;2023-11-21T02:13:31;89548.03;;;0.17
62930;BMP280;49036;42.782;23.108;2023-11-21T02:15:57;89504.53;;;0.19
62930;BMP280;49036;42.782;23.108;2023-11-21T02:18:23;89468.47;;;0.21
62930;BMP280;49036;42.782;23.108;2023-11-21T02:20:48;89445.44;;;0.24
62930;BMP280;49036;42.782;23.108;2023-11-21T02:23:14;89430.44;;;0.23
62930;BMP280;49036;42.782;23.108;2023-11-21T02:25:40;89443.59;;;0.11
62930;BMP280;49036;42.782;23.108;2023-11-21T02:28:08;89463.63;;;-0.01
62930;BMP280;49036;42.782;23.108;2023-11-21T02:30:33;89494.28;;;-0.18
62930;BMP280;49036;42.782;23.108;2023-11-21T02:33:00;89519.94;;;-0.23
62930;BMP280;49036;42.782;23.108;2023-11-21T02:35:26;89542.22;;;-0.29
62930;BMP280;49036;42.782;23.108;2023-11-21T02:37:52;89548.13;;;-0.34
62930;BMP280;49036;42.782;23.108;2023-11-21T02:40:17;89558.38;;;-0.33
62930;BMP280;49036;42.782;23.108;2023-11-21T02:42:44;89568.50;;;-0.35
62930;BMP280;49036;42.782;23.108;2023-11-21T02:45:10;89564.69;;;-0.28
62930;BMP280;49036;42.782;23.108;2023-11-21T02:47:39;89578.59;;;-0.38
62930;BMP280;49036;42.782;23.108;2023-11-21T02:50:04;89578.34;;;-0.44
62930;BMP280;49036;42.782;23.108;2023-11-21T02:52:33;89594.28;;;-0.54
62930;BMP280;49036;42.782;23.108;2023-11-21T02:54:58;89586.97;;;-0.50
62930;BMP280;49036;42.782;23.108;2023-11-21T02:57:24;89593.03;;;-0.51
62930;BMP280;49036;42.782;23.108;2023-11-21T02:59:49;89592.41;;;-0.50
62930;BMP280;49036;42.782;23.108;2023-11-21T03:02:15;89591.19;;;-0.47
62930;BMP280;49036;42.782;23.108;2023-11-21T03:04:41;89575.78;;;-0.40
62930;BMP280;49036;42.782;23.108;2023-11-21T03:07:08;89548.88;;;-0.32
62930;BMP280;49036;42.782;23.108;2023-11-21T03:09:33;89544.22;;;-0.29
62930;BMP280;49036;42.782;23.108;2023-11-21T03:11:59;89535.59;;;-0.24
62930;BMP280;49036;42.782;23.108;2023-11-21T03:14:24;89527.06;;;-0.16
62930;BMP280;49036;42.782;23.108;2023-11-21T03:16:50;89510.78;;;-0.14
62930;BMP280;49036;42.782;23.108;2023-11-21T03:19:16;89498.72;;;-0.09
62930;BMP280;49036;42.782;23.108;2023-11-21T03:21:42;89487.22;;;-0.07
62930;BMP280;49036;42.782;23.108;2023-11-21T03:24:07;89481.59;;;-0.11
62930;BMP280;49036;42.782;23.108;2023-11-21T03:26:33;89472.19;;;-0.08
62930;BMP280;49036;42.782;23.108;2023-11-21T03:28:59;89470.09;;;-0.10
62930;BMP280;49036;42.782;23.108;2023-11-21T03:31:24;89468.84;;;-0.07
62930;BMP280;49036;42.782;23.108;2023-11-21T03:33:50;89453.38;;;-0.02
62930;BMP280;49036;42.782;23.108;2023-11-21T03:36:15;89428.28;;;0.01
62930;BMP280;49036;42.782;23.108;2023-11-21T03:38:43;89420.22;;;0.03
62930;BMP280;49036;42.782;23.108;2023-11-21T03:41:08;89354.41;;;0.11
62930;BMP280;49036;42.782;23.108;2023-11-21T03:43:37;89358.47;;;0.10
62930;BMP280;49036;42.782;23.108;2023-11-21T03:46:03;89345.63;;;0.13
62930;BMP280;49036;42.782;23.108;2023-11-21T03:48:29;89347.16;;;0.18
62930;BMP280;49036;42.782;23.108;2023-11-21T03:50:54;89343.03;;;0.17
62930;BMP280;49036;42.782;23.108;2023-11-21T03:53:20;89345.13;;;0.18
62930;BMP280;49036;42.782;23.108;2023-11-21T03:55:45;89320.56;;;0.16
62930;BMP280;49036;42.782;23.108;2023-11-21T03:58:11;89327.72;;;0.07
62930;BMP280;49036;42.782;23.108;2023-11-21T04:00:36;89337.94;;;0.07
62930;BMP280;49036;42.782;23.108;2023-11-21T04:03:02;89353.50;;;0.04
62930;BMP280;49036;42.782;23.108;2023-11-21T04:05:28;89339.81;;;0.02
62930;BMP280;49036;42.782;23.108;2023-11-21T04:07:54;89338.56;;;0.05
62930;BMP280;49036;42.782;23.108;2023-11-21T04:10:20;89338.56;;;0.05
62930;BMP280;49036;42.782;23.108;2023-11-21T04:12:45;89346.66;;;0.03
62930;BMP280;49036;42.782;23.108;2023-11-21T04:15:11;89354.69;;;-0.01
62930;BMP280;49036;42.782;23.108;2023-11-21T04:17:40;89369.41;;;-0.08
62930;BMP280;49036;42.782;23.108;2023-11-21T04:20:07;89367.47;;;-0.05
62930;BMP280;49036;42.782;23.108;2023-11-21T04:22:41;89376.75;;;-0.12
62930;BMP280;49036;42.782;23.108;2023-11-21T04:25:10;89397.59;;;-0.19
62930;BMP280;49036;42.782;23.108;2023-11-21T04:27:37;89421.81;;;-0.27
62930;BMP280;49036;42.782;23.108;2023-11-21T04:30:03;89433.09;;;-0.35
62930;BMP280;49036;42.782;23.108;2023-11-21T04:32:28;89440.56;;;-0.35
62930;BMP280;49036;42.782;23.108;2023-11-21T04:34:54;89426.56;;;-0.28
62930;BMP280;49036;42.782;23.108;2023-11-21T04:37:19;89430.50;;;-0.31
62930;BMP280;49036;42.782;23.108;2023-11-21T04:39:45;89438.53;;;-0.35
62930;BMP280;49036;42.782;23.108;2023-11-21T04:42:10;89440.78;;;-0.29
62930;BMP280;49036;42.782;23.108;2023-11-21T04:44:37;89448.16;;;-0.32
62930;BMP280;49036;42.782;23.108;2023-11-21T04:47:06;89440.72;;;-0.31
62930;BMP280;49036;42.782;23.108;2023-11-21T04:49:33;89436.06;;;-0.29
62930;BMP280;49036;42.782;23.108;2023-11-21T04:51:59;89422.50;;;-0.27
62930;BMP280;49036;42.782;23.108;2023-11-21T04:54:24;89413.72;;;-0.25
62930;BMP280;49036;42.782;23.108;2023-11-21T04:56:50;89419.56;;;-0.33
62930;BMP280;49036;42.782;23.108;2023-11-21T04:59:15;89423.69;;;-0.32
62930;BMP280;49036;42.782;23.108;2023-11-21T05:01:41;89410.94;;;-0.27
62930;BMP280;49036;42.782;23.108;2023-11-21T05:04:06;89394.59;;;-0.27
62930;BMP280;49036;42.782;23.108;2023-11-21T05:06:34;89393.91;;;-0.28
62930;BMP280;49036;42.782;23.108;2023-11-21T05:09:00;89377.09;;;-0.22
62930;BMP280;49036;42.782;23.108;2023-11-21T05:11:26;89354.03;;;-0.19
62930;BMP280;49036;42.782;23.108;2023-11-21T05:13:52;89334.50;;;-0.13
62930;BMP280;49036;42.782;23.108;2023-11-21T05:16:19;89326.41;;;-0.11
62930;BMP280;49036;42.782;23.108;2023-11-21T05:18:44;89332.47;;;-0.13
62930;BMP280;49036;42.782;23.108;2023-11-21T05:21:10;89346.09;;;-0.13
62930;BMP280;49036;42.782;23.108;2023-11-21T05:23:36;89332.53;;;-0.11
62930;BMP280;49036;42.782;23.108;2023-11-21T05:26:03;89321.38;;;0.01
62930;BMP280;49036;42.782;23.108;2023-11-21T05:28:28;89317.47;;;0.06
62930;BMP280;49036;42.782;23.108;2023-11-21T05:30:54;89316.63;;;0.01
62930;BMP280;49036;42.782;23.108;2023-11-21T05:33:20;89326.75;;;-0.01
62930;BMP280;49036;42.782;23.108;2023-11-21T05:35:45;89327.31;;;-0.05
62930;BMP280;49036;42.782;23.108;2023-11-21T05:38:11;89348.34;;;-0.07
62930;BMP280;49036;42.782;23.108;2023-11-21T05:40:37;89350.78;;;-0.15
62930;BMP280;49036;42.782;23.108;2023-11-21T05:43:02;89364.41;;;-0.15
62930;BMP280;49036;42.782;23.108;2023-11-21T05:45:28;89384.56;;;-0.23
62930;BMP280;49036;42.782;23.108;2023-11-21T05:47:55;89397.31;;;-0.27
62930;BMP280;49036;42.782;23.108;2023-11-21T05:50:20;89410.22;;;-0.28
62930;BMP280;49036;42.782;23.108;2023-11-21T05:52:47;89416.84;;;-0.33
62930;BMP280;49036;42.782;23.108;2023-11-21T05:55:13;89430.91;;;-0.38
62930;BMP280;49036;42.782;23.108;2023-11-21T05:57:40;89444.53;;;-0.38
62930;BMP280;49036;42.782;23.108;2023-11-21T06:00:11;89440.78;;;-0.29
62930;BMP280;49036;42.782;23.108;2023-11-21T06:02:41;89435.50;;;-0.25
62930;BMP280;49036;42.782;23.108;2023-11-21T06:05:07;89426.78;;;-0.22
62930;BMP280;49036;42.782;23.108;2023-11-21T06:07:34;89409.47;;;-0.10
62930;BMP280;49036;42.782;23.108;2023-11-21T06:10:03;89404.25;;;-0.04
62930;BMP280;49036;42.782;23.108;2023-11-21T06:12:32;89397.00;;;0.02
62930;BMP280;49036;42.782;23.108;2023-11-21T06:15:03;89367.75;;;0.23
62930;BMP280;49036;42.782;23.108;2023-11-21T06:17:35;89339.63;;;0.38
62930;BMP280;49036;42.782;23.108;2023-11-21T06:20:05;89316.22;;;0.51
62930;BMP280;49036;42.782;23.108;2023-11-21T06:22:44;89275.06;;;0.64
62930;BMP280;49036;42.782;23.108;2023-11-21T06:25:10;89237.47;;;0.83
62930;BMP280;49036;42.782;23.108;2023-11-21T06:27:40;89221.31;;;0.91
62930;BMP280;49036;42.782;23.108;2023-11-21T06:30:06;89197.19;;;1.05
62930;BMP280;49036;42.782;23.108;2023-11-21T06:32:33;89169.56;;;1.17
62930;BMP280;49036;42.782;23.108;2023-11-21T06:34:59;89121.06;;;1.41
62930;BMP280;49036;42.782;23.108;2023-11-21T06:37:28;89081.34;;;1.62
62930;BMP280;49036;42.782;23.108;2023-11-21T06:39:54;88889.94;;;1.82
62930;BMP280;49036;42.782;23.108;2023-11-21T06:42:22;88835.63;;;2.37
62930;BMP280;49036;42.782;23.108;2023-11-21T06:44:48;88809.50;;;2.68
62930;BMP280;49036;42.782;23.108;2023-11-21T06:47:14;88802.31;;;2.93
62930;BMP280;49036;42.782;23.108;2023-11-21T06:49:41;88817.66;;;3.12
62930;BMP280;49036;42.782;23.108;2023-11-21T06:52:06;88883.16;;;3.00
62930;BMP280;49036;42.782;23.108;2023-11-21T06:54:32;88927.44;;;2.90
62930;BMP280;49036;42.782;23.108;2023-11-21T06:56:58;88968.41;;;2.86
62930;BMP280;49036;42.782;23.108;2023-11-21T06:59:23;89012.16;;;2.84
62930;BMP280;49036;42.782;23.108;2023-11-21T07:01:50;89038.25;;;2.91
62930;BMP280;49036;42.782;23.108;2023-11-21T07:04:15;89091.72;;;2.96
62930;BMP280;49036;42.782;23.108;2023-11-21T07:06:40;89088.16;;;3.26
62930;BMP280;49036;42.782;23.108;2023-11-21T07:09:06;89177.38;;;3.39
62930;BMP280;49036;42.782;23.108;2023-11-21T07:11:34;89241.72;;;3.76
62930;BMP280;49036;42.782;23.108;2023-11-21T07:13:59;89339.72;;;4.14
62930;BMP280;49036;42.782;23.108;2023-11-21T07:16:27;89434.41;;;4.17
62930;BMP280;49036;42.782;23.108;2023-11-21T07:18:54;89601.97;;;4.31
62930;BMP280;49036;42.782;23.108;2023-11-21T07:21:20;89754.53;;;4.44
62930;BMP280;49036;42.782;23.108;2023-11-21T07:23:46;89933.72;;;4.51
62930;BMP280;49036;42.782;23.108;2023-11-21T07:26:11;90236.78;;;4.89
62930;BMP280;49036;42.782;23.108;2023-11-21T07:28:37;90581.31;;;5.06
62930;BMP280;49036;42.782;23.108;2023-11-21T07:31:03;90768.19;;;5.08
62930;BMP280;49036;42.782;23.108;2023-11-21T07:33:28;90929.22;;;5.15
62930;BMP280;49036;42.782;23.108;2023-11-21T07:35:54;91118.09;;;5.15
62930;BMP280;49036;42.782;23.108;2023-11-21T07:38:19;91151.97;;;5.19
62930;BMP280;49036;42.782;23.108;2023-11-21T07:40:45;91256.78;;;5.28
62930;BMP280;49036;42.782;23.108;2023-11-21T07:43:10;91298.03;;;5.43
62930;BMP280;49036;42.782;23.108;2023-11-21T07:45:36;91371.31;;;5.53
62930;BMP280;49036;42.782;23.108;2023-11-21T07:48:02;91425.31;;;5.75
62930;BMP280;49036;42.782;23.108;2023-11-21T07:50:29;91503.34;;;5.96
62930;BMP280;49036;42.782;23.108;2023-11-21T07:52:54;91606.75;;;6.01
62930;BMP280;49036;42.782;23.108;2023-11-21T07:55:20;91677.47;;;6.12
62930;BMP280;49036;42.782;23.108;2023-11-21T07:57:46;91658.91;;;6.40
62930;BMP280;49036;42.782;23.108;2023-11-21T08:00:12;91844.53;;;6.62
62930;BMP280;49036;42.782;23.108;2023-11-21T08:02:39;91933.00;;;6.82
62930;BMP280;49036;42.782;23.108;2023-11-21T08:05:07;91932.91;;;6.94
62930;BMP280;49036;42.782;23.108;2023-11-21T08:07:33;91993.59;;;7.08
62930;BMP280;49036;42.782;23.108;2023-11-21T08:09:59;92084.59;;;7.21
62930;BMP280;49036;42.782;23.108;2023-11-21T08:12:24;92098.38;;;7.35
62930;BMP280;49036;42.782;23.108;2023-11-21T08:14:53;92169.31;;;7.46
62930;BMP280;49036;42.782;23.108;2023-11-21T08:17:18;92257.06;;;7.61
62930;BMP280;49036;42.782;23.108;2023-11-21T08:19:45;92273.75;;;7.77
62930;BMP280;49036;42.782;23.108;2023-11-21T08:22:15;92276.31;;;7.87
62930;BMP280;49036;42.782;23.108;2023-11-21T08:24:43;92368.13;;;8.13
62930;BMP280;49036;42.782;23.108;2023-11-21T08:27:09;92428.19;;;8.12
62930;BMP280;49036;42.782;23.108;2023-11-21T08:29:34;92434.59;;;8.29
62930;BMP280;49036;42.782;23.108;2023-11-21T08:32:02;92499.84;;;8.47
62930;BMP280;49036;42.782;23.108;2023-11-21T08:34:27;92554.88;;;8.69
62930;BMP280;49036;42.782;23.108;2023-11-21T08:36:54;92582.00;;;8.98
62930;BMP280;49036;42.782;23.108;2023-11-21T08:39:19;92588.94;;;9.24
62930;BMP280;49036;42.782;23.108;2023-11-21T08:41:44;92615.38;;;9.55
62930;BMP280;49036;42.782;23.108;2023-11-21T08:44:11;92614.97;;;9.74
62930;BMP280;49036;42.782;23.108;2023-11-21T08:46:36;92675.53;;;10.07
62930;BMP280;49036;42.782;23.108;2023-11-21T08:49:04;92711.75;;;10.11
62930;BMP280;49036;42.782;23.108;2023-11-21T08:51:29;92723.78;;;10.16
62930;BMP280;49036;42.782;23.108;2023-11-21T08:53:55;92791.63;;;10.28
62930;BMP280;49036;42.782;23.108;2023-11-21T08:56:24;92819.75;;;10.50
62930;BMP280;49036;42.782;23.108;2023-11-21T08:58:50;92802.72;;;10.28
62930;BMP280;49036;42.782;23.108;2023-11-21T09:01:15;92754.16;;;10.14
62930;BMP280;49036;42.782;23.108;2023-11-21T09:03:42;92789.16;;;10.21
62930;BMP280;49036;42.782;23.108;2023-11-21T09:06:09;92724.06;;;10.22
62930;BMP280;49036;42.782;23.108;2023-11-21T09:08:35;92745.84;;;10.27
62930;BMP280;49036;42.782;23.108;2023-11-21T09:11:00;92754.34;;;10.31
62930;BMP280;49036;42.782;23.108;2023-11-21T09:13:26;92826.25;;;10.27
62930;BMP280;49036;42.782;23.108;2023-11-21T09:15:52;92796.78;;;10.34
62930;BMP280;49036;42.782;23.108;2023-11-21T09:18:18;92839.41;;;10.54
62930;BMP280;49036;42.782;23.108;2023-11-21T09:20:44;92866.63;;;10.85
62930;BMP280;49036;42.782;23.108;2023-11-21T09:23:09;92843.88;;;11.02
62930;BMP280;49036;42.782;23.108;2023-11-21T09:25:35;92884.84;;;11.31
62930;BMP280;49036;42.782;23.108;2023-11-21T09:28:03;92922.22;;;11.58
62930;BMP280;49036;42.782;23.108;2023-11-21T09:30:33;92935.16;;;11.81
62930;BMP280;49036;42.782;23.108;2023-11-21T09:32:59;92934.94;;;11.77
62930;BMP280;49036;42.782;23.108;2023-11-21T09:35:24;92918.53;;;11.67
62930;BMP280;49036;42.782;23.108;2023-11-21T09:37:50;92880.03;;;11.91
62930;BMP280;49036;42.782;23.108;2023-11-21T09:40:21;92881.91;;;11.86
62930;BMP280;49036;42.782;23.108;2023-11-21T09:42:57;92865.59;;;11.94
62930;BMP280;49036;42.782;23.108;2023-11-21T09:45:34;92878.88;;;11.96
62930;BMP280;49036;42.782;23.108;2023-11-21T09:48:00;92864.97;;;11.96
62930;BMP280;49036;42.782;23.108;2023-11-21T09:50:25;92884.06;;;12.04
62930;BMP280;49036;42.782;23.108;2023-11-21T09:55:46;92921.97;;;12.42
62930;BMP280;49036;42.782;23.108;2023-11-21T09:58:13;92947.00;;;12.42
62930;BMP280;49036;42.782;23.108;2023-11-21T10:00:44;92967.91;;;12.27
62930;BMP280;49036;42.782;23.108;2023-11-21T10:03:10;92958.94;;;12.29
62930;BMP280;49036;42.782;23.108;2023-11-21T10:05:37;92968.53;;;12.26
62930;BMP280;49036;42.782;23.108;2023-11-21T10:08:07;92933.53;;;12.21
62930;BMP280;49036;42.782;23.108;2023-11-21T10:10:32;92940.44;;;12.20
62930;BMP280;49036;42.782;23.108;2023-11-21T10:13:02;92920.28;;;11.90
62930;BMP280;49036;42.782;23.108;2023-11-21T10:15:29;92892.09;;;11.82
62930;BMP280;49036;42.782;23.108;2023-11-21T10:17:54;92887.09;;;11.64
62930;BMP280;49036;42.782;23.108;2023-11-21T10:20:24;92890.31;;;11.43
62930;BMP280;49036;42.782;23.108;2023-11-21T10:22:50;92849.03;;;11.38
62930;BMP280;49036;42.782;23.108;2023-11-21T10:25:15;92851.03;;;11.35
62930;BMP280;49036;42.782;23.108;2023-11-21T10:27:42;92818.09;;;11.29
62930;BMP280;49036;42.782;23.108;2023-11-21T10:30:09;92830.84;;;11.34
62930;BMP280;49036;42.782;23.108;2023-11-21T10:32:38;92789.28;;;11.37
62930;BMP280;49036;42.782;23.108;2023-11-21T10:35:07;92779.25;;;11.45
62930;BMP280;49036;42.782;23.108;2023-11-21T10:37:44;92765.47;;;11.47
62930;BMP280;49036;42.782;23.108;2023-11-21T10:40:10;92793.59;;;11.40
62930;BMP280;49036;42.782;23.108;2023-11-21T10:42:39;92777.03;;;11.12
62930;BMP280;49036;42.782;23.108;2023-11-21T10:45:06;92754.63;;;10.79
62930;BMP280;49036;42.782;23.108;2023-11-21T10:47:42;92692.34;;;10.38
62930;BMP280;49036;42.782;23.108;2023-11-21T10:50:09;92666.28;;;10.16
62930;BMP280;49036;42.782;23.108;2023-11-21T10:52:37;92625.06;;;9.95
62930;BMP280;49036;42.782;23.108;2023-11-21T10:55:16;92595.09;;;9.77
62930;BMP280;49036;42.782;23.108;2023-11-21T10:57:42;92586.25;;;9.67
62930;BMP280;49036;42.782;23.108;2023-11-21T11:00:08;92560.22;;;9.59
62930;BMP280;49036;42.782;23.108;2023-11-21T11:02:38;92570.19;;;9.50
62930;BMP280;49036;42.782;23.108;2023-11-21T11:05:04;92536.44;;;9.54
62930;BMP280;49036;42.782;23.108;2023-11-21T11:07:31;92545.03;;;9.60
62930;BMP280;49036;42.782;23.108;2023-11-21T11:09:59;92570.88;;;9.64
62930;BMP280;49036;42.782;23.108;2023-11-21T11:12:25;92579.50;;;9.70
62930;BMP280;49036;42.782;23.108;2023-11-21T11:14:51;92580.53;;;9.77
62930;BMP280;49036;42.782;23.108;2023-11-21T11:17:19;92593.56;;;9.74
62930;BMP280;49036;42.782;23.108;2023-11-21T11:19:47;92628.72;;;9.72
62930;BMP280;49036;42.782;23.108;2023-11-21T11:27:37;92617.75;;;9.60
62930;BMP280;49036;42.782;23.108;2023-11-21T11:30:11;92612.31;;;9.49
62930;BMP280;49036;42.782;23.108;2023-11-21T11:32:58;92587.09;;;9.42
62930;BMP280;49036;42.782;23.108;2023-11-21T11:37:58;92543.28;;;9.39
62930;BMP280;49036;42.782;23.108;2023-11-21T11:40:38;92501.69;;;9.23
62930;BMP280;49036;42.782;23.108;2023-11-21T11:43:04;92486.63;;;8.99
62930;BMP280;49036;42.782;23.108;2023-11-21T11:45:33;92443.66;;;8.57
62930;BMP280;49036;42.782;23.108;2023-11-21T11:48:03;92369.47;;;8.26
62930;BMP280;49036;42.782;23.108;2023-11-21T11:50:29;92215.09;;;7.90
62930;BMP280;49036;42.782;23.108;2023-11-21T11:52:55;92087.56;;;7.67
62930;BMP280;49036;42.782;23.108;2023-11-21T11:55:36;91921.72;;;7.47
62930;BMP280;49036;42.782;23.108;2023-11-21T11:58:05;91750.38;;;7.25
62930;BMP280;49036;42.782;23.108;2023-11-21T12:00:35;91476.31;;;6.85
62930;BMP280;49036;42.782;23.108;2023-11-21T12:03:04;91225.09;;;6.55
62930;BMP280;49036;42.782;23.108;2023-11-21T12:05:34;91045.59;;;6.43
62930;BMP280;49036;42.782;23.108;2023-11-21T12:08:05;90887.00;;;6.35
62930;BMP280;49036;42.782;23.108;2023-11-21T12:10:34;90773.22;;;6.29
62930;BMP280;49036;42.782;23.108;2023-11-21T12:13:08;90606.69;;;6.28
62930;BMP280;49036;42.782;23.108;2023-11-21T12:15:35;90544.78;;;6.29
62930;BMP280;49036;42.782;23.108;2023-11-21T12:18:02;90414.56;;;6.22
62930;BMP280;49036;42.782;23.108;2023-11-21T12:20:27;90400.66;;;6.18
62930;BMP280;49036;42.782;23.108;2023-11-21T12:22:55;90393.41;;;6.05
62930;BMP280;49036;42.782;23.108;2023-11-21T12:25:24;90285.94;;;5.99
62930;BMP280;49036;42.782;23.108;2023-11-21T12:27:51;90189.56;;;5.95
62930;BMP280;49036;42.782;23.108;2023-11-21T12:30:19;90039.53;;;5.90
62930;BMP280;49036;42.782;23.108;2023-11-21T12:32:48;89933.75;;;5.95
62930;BMP280;49036;42.782;23.108;2023-11-21T12:35:14;89879.53;;;5.99
62930;BMP280;49036;42.782;23.108;2023-11-21T12:37:41;89805.31;;;6.01
62930;BMP280;49036;42.782;23.108;2023-11-21T12:40:09;89771.78;;;6.11
62930;BMP280;49036;42.782;23.108;2023-11-21T12:42:45;89782.31;;;6.23
62930;BMP280;49036;42.782;23.108;2023-11-21T12:47:43;89885.69;;;6.32
62930;BMP280;49036;42.782;23.108;2023-11-21T12:50:10;89889.88;;;6.35
62930;BMP280;49036;42.782;23.108;2023-11-21T12:52:44;89878.34;;;6.45
62930;BMP280;49036;42.782;23.108;2023-11-21T12:55:20;89886.16;;;6.56
62930;BMP280;49036;42.782;23.108;2023-11-21T12:57:51;89913.59;;;6.52
62930;BMP280;49036;42.782;23.108;2023-11-21T13:00:49;89948.34;;;6.35
62930;BMP280;49036;42.782;23.108;2023-11-21T13:03:16;89886.31;;;6.28
62930;BMP280;49036;42.782;23.108;2023-11-21T13:05:44;89741.16;;;6.29
62930;BMP280;49036;42.782;23.108;2023-11-21T13:08:11;89646.94;;;6.30
62930;BMP280;49036;42.782;23.108;2023-11-21T13:10:42;89610.50;;;6.32
62930;BMP280;49036;42.782;23.108;2023-11-21T13:13:11;89601.56;;;6.31
62930;BMP280;49036;42.782;23.108;2023-11-21T13:16:01;89601.53;;;6.29
62930;BMP280;49036;42.782;23.108;2023-11-21T13:18:30;89600.84;;;6.31
62930;BMP280;49036;42.782;23.108;2023-11-21T13:20:57;89587.19;;;6.37
62930;BMP280;49036;42.782;23.108;2023-11-21T13:23:24;89574.28;;;6.50
62930;BMP280;49036;42.782;23.108;2023-11-21T13:25:51;89549.06;;;6.67
62930;BMP280;49036;42.782;23.108;2023-11-21T13:28:16;89570.31;;;6.61
62930;BMP280;49036;42.782;23.108;2023-11-21T13:30:43;89554.53;;;6.65
62930;BMP280;49036;42.782;23.108;2023-11-21T13:33:10;89509.31;;;6.85
62930;BMP280;49036;42.782;23.108;2023-11-21T13:35:38;89514.81;;;6.85
62930;BMP280;49036;42.782;23.108;2023-11-21T13:38:12;89520.31;;;6.85
62930;BMP280;49036;42.782;23.108;2023-11-21T13:40:40;89547.16;;;6.82
62930;BMP280;49036;42.782;23.108;2023-11-21T13:43:16;89610.44;;;6.76
62930;BMP280;49036;42.782;23.108;2023-11-21T13:45:45;89607.06;;;6.80
62930;BMP280;49036;42.782;23.108;2023-11-21T13:48:12;89649.06;;;6.80
62930;BMP280;49036;42.782;23.108;2023-11-21T13:50:44;89694.47;;;6.79
62930;BMP280;49036;42.782;23.108;2023-11-21T13:53:30;89759.09;;;6.74
62930;BMP280;49036;42.782;23.108;2023-11-21T13:55:56;89789.41;;;6.74
62930;BMP280;49036;42.782;23.108;2023-11-21T13:58:25;89840.31;;;6.73
62930;BMP280;49036;42.782;23.108;2023-11-21T14:01:09;89821.75;;;6.74
62930;BMP280;49036;42.782;23.108;2023-11-21T14:03:53;89744.81;;;6.86
62930;BMP280;49036;42.782;23.108;2023-11-21T14:06:25;89675.28;;;6.85
62930;BMP280;49036;42.782;23.108;2023-11-21T14:08:57;89618.84;;;6.88
62930;BMP280;49036;42.782;23.108;2023-11-21T14:11:23;89587.78;;;6.84
62930;BMP280;49036;42.782;23.108;2023-11-21T14:13:49;89588.41;;;6.78
62930;BMP280;49036;42.782;23.108;2023-11-21T14:16:15;89588.47;;;6.84
62930;BMP280;49036;42.782;23.108;2023-11-21T14:18:42;89635.97;;;6.79